Braceville, Ohio
Current Conditions -  °F | °C
As of 12:51 PM on Sunday 21 Dec 2014 (Local Time) from KYNG Reporting Station
Overcast Overcast  
Wind Chill: 24°   Ceiling: 2500
Heat Index: 30°   Visibility: 10mi
Dew Point: 20°   Wind: 6mph
Humidity: 66%   Direction: 190°S
Pressure: 30.27"   Gusts: NA
Location:  41.1752°N, 80.9706°W
Report Text: KYNG 211751Z 19005KT 10SM OVC025 M01/M07 A3027 RMK AO2 SLP266 T10111067 11006 21022 58010
Loading
Personal Weather Stations






























Interactive Weather Map New forecast layout! Learn more

10-Day Weather Forecast

Advertisements
Track Severe Weather on mobile